createdAt,value
2019-02-06T00:01:08.740Z,98490.83
2019-02-06T00:03:39.256Z,98484.95
2019-02-06T00:06:09.044Z,98490.18
2019-02-06T00:08:39.137Z,98490.18
2019-02-06T00:11:08.942Z,98486.22
2019-02-06T00:13:39.496Z,98485.94
2019-02-06T00:16:09.233Z,98484.88
2019-02-06T00:18:41.521Z,98484.88
2019-02-06T00:21:11.759Z,98491.05
2019-02-06T00:23:41.628Z,98484.72
2019-02-06T00:26:11.261Z,98484.72
2019-02-06T00:28:42.893Z,98477.60
2019-02-06T00:31:12.702Z,98476.18
2019-02-06T00:33:43.410Z,98476.18
2019-02-06T00:36:13.206Z,98479.20
2019-02-06T00:38:43.361Z,98479.20
2019-02-06T00:41:13.197Z,98484.16
2019-02-06T00:43:43.172Z,98484.56
2019-02-06T00:46:13.039Z,98483.16
2019-02-06T00:48:43.074Z,98484.16
2019-02-06T00:51:12.831Z,98478.82
2019-02-06T00:53:43.081Z,98478.82
2019-02-06T00:56:13.046Z,98474.22
2019-02-06T00:58:44.380Z,98474.22
2019-02-06T01:01:14.088Z,98468.96
2019-02-06T01:03:46.999Z,98462.77
2019-02-06T01:06:16.794Z,98462.77
2019-02-06T01:08:46.799Z,98458.34
2019-02-06T01:11:16.603Z,98462.42
2019-02-06T01:13:49.498Z,98471.23
2019-02-06T01:16:19.322Z,98470.88
2019-02-06T01:18:49.263Z,98469.45
2019-02-06T01:21:19.399Z,98470.69
2019-02-06T01:23:49.563Z,98473.23
2019-02-06T01:26:19.385Z,98473.23
2019-02-06T01:28:49.241Z,98468.23
2019-02-06T01:31:22.825Z,98459.72
2019-02-06T01:33:52.817Z,98459.72
2019-02-06T01:36:23.093Z,98455.48
2019-02-06T01:38:55.811Z,98462.64
2019-02-06T01:41:25.634Z,98451.34
2019-02-06T01:43:55.446Z,98451.34
2019-02-06T01:46:25.377Z,98451.45
2019-02-06T01:48:56.785Z,98457.92
2019-02-06T01:51:26.896Z,98464.12
2019-02-06T01:53:58.690Z,98464.12
2019-02-06T01:56:28.619Z,98455.52
2019-02-06T01:58:58.535Z,98460.25
2019-02-06T02:01:29.126Z,98468.13
2019-02-06T02:03:59.565Z,98468.13
2019-02-06T02:06:29.205Z,98472.72
2019-02-06T02:09:02.247Z,98474.91
2019-02-06T02:11:31.998Z,98464.85
2019-02-06T02:14:02.765Z,98466.98
2019-02-06T02:16:32.693Z,98470.08
2019-02-06T02:19:02.668Z,98470.08
2019-02-06T02:21:32.403Z,98452.07
2019-02-06T02:24:02.184Z,98452.07
2019-02-06T02:26:32.213Z,98446.01
2019-02-06T02:29:01.942Z,98439.77
2019-02-06T02:31:31.519Z,98432.27
2019-02-06T02:34:01.394Z,98435.83
2019-02-06T02:36:31.234Z,98435.83
2019-02-06T02:39:00.984Z,98421.66
2019-02-06T02:41:31.026Z,98414.45
2019-02-06T02:44:00.790Z,98409.88
2019-02-06T02:46:30.648Z,98409.78
2019-02-06T02:49:03.373Z,98410.20
2019-02-06T02:51:33.044Z,98410.20
2019-02-06T02:54:02.572Z,98403.10
2019-02-06T02:56:32.810Z,98396.55
2019-02-06T02:59:02.787Z,98394.38
2019-02-06T03:01:58.140Z,98389.09
2019-02-06T03:04:37.876Z,98382.27
2019-02-06T03:07:07.796Z,98389.40
2019-02-06T03:09:37.649Z,98389.40
2019-02-06T03:12:07.459Z,98386.17
2019-02-06T03:14:37.107Z,98372.98
2019-02-06T03:17:07.205Z,98373.74
2019-02-06T03:19:37.340Z,98366.38
2019-02-06T03:22:07.262Z,98365.97
2019-02-06T03:24:37.254Z,98365.97
2019-02-06T03:27:07.500Z,98369.02
2019-02-06T03:29:37.457Z,98351.12
2019-02-06T03:32:07.261Z,98346.08
2019-02-06T03:34:36.645Z,98346.08
2019-02-06T03:37:06.478Z,98348.41
2019-02-06T03:39:38.083Z,98341.72
2019-02-06T03:42:07.784Z,98333.29
2019-02-06T03:44:39.079Z,98327.55
2019-02-06T03:47:08.631Z,98328.06
2019-02-06T03:49:38.149Z,98328.06
2019-02-06T03:52:07.713Z,98330.70
2019-02-06T03:54:37.062Z,98321.41
2019-02-06T03:57:09.814Z,98323.92
2019-02-06T03:59:39.318Z,98321.16
2019-02-06T04:02:12.429Z,98316.98
2019-02-06T04:04:43.018Z,98315.06
2019-02-06T04:07:13.388Z,98315.06
2019-02-06T04:09:44.507Z,98319.73
2019-02-06T04:12:14.140Z,98325.88
2019-02-06T04:14:43.765Z,98325.88
2019-02-06T04:17:14.457Z,98320.02
2019-02-06T04:19:44.669Z,98310.77
2019-02-06T04:22:14.081Z,98306.20
2019-02-06T04:24:43.674Z,98306.20
2019-02-06T04:27:17.057Z,98320.36
2019-02-06T04:29:49.549Z,98321.88
2019-02-06T04:32:18.930Z,98321.88
2019-02-06T04:34:51.607Z,98319.41
2019-02-06T04:37:22.644Z,98318.89
2019-02-06T04:39:53.481Z,98318.89
2019-02-06T04:42:23.001Z,98311.30
2019-02-06T04:44:55.764Z,98314.84
2019-02-06T04:47:25.402Z,98313.41
2019-02-06T04:49:57.813Z,98300.06
2019-02-06T04:52:30.747Z,98313.53
2019-02-06T04:55:00.469Z,98313.81
2019-02-06T04:57:30.104Z,98307.81
2019-02-06T05:00:00.360Z,98301.16
2019-02-06T05:02:29.850Z,98298.69
2019-02-06T05:04:59.443Z,98298.69
2019-02-06T05:07:31.354Z,98294.14
2019-02-06T05:10:00.854Z,98294.83
2019-02-06T05:12:30.463Z,98294.83
2019-02-06T05:15:00.773Z,98293.87
2019-02-06T05:17:30.258Z,98286.67
2019-02-06T05:20:03.192Z,98285.44
2019-02-06T05:22:32.767Z,98283.47
2019-02-06T05:25:02.338Z,98272.73
2019-02-06T05:27:32.304Z,98265.69
2019-02-06T05:30:03.851Z,98268.78
2019-02-06T05:32:35.559Z,98264.47
2019-02-06T05:35:05.236Z,98264.47
2019-02-06T05:37:34.843Z,98265.39
2019-02-06T05:40:04.519Z,98264.37
2019-02-06T05:42:35.492Z,98264.02
2019-02-06T05:45:05.531Z,98269.02
2019-02-06T05:47:37.714Z,98265.28
2019-02-06T05:50:08.275Z,98261.27
2019-02-06T05:52:41.458Z,98261.27
2019-02-06T05:55:11.224Z,98256.96
2019-02-06T05:57:43.802Z,98263.86
2019-02-06T06:00:20.297Z,98256.45
2019-02-06T06:02:49.701Z,98255.78
2019-02-06T06:05:19.657Z,98249.45
2019-02-06T06:07:49.170Z,98249.45
2019-02-06T06:10:18.899Z,98256.09
2019-02-06T06:12:49.370Z,98247.00
2019-02-06T06:15:20.660Z,98247.00
2019-02-06T06:17:51.929Z,98244.27
2019-02-06T06:20:21.669Z,98246.64
2019-02-06T06:22:51.330Z,98252.03
2019-02-06T06:25:21.073Z,98252.03
2019-02-06T06:27:51.383Z,98241.37
2019-02-06T06:30:22.123Z,98243.44
2019-02-06T06:32:52.392Z,98249.34
2019-02-06T06:35:22.305Z,98249.34
2019-02-06T06:37:59.492Z,98251.17
2019-02-06T06:40:23.519Z,98244.22
2019-02-06T06:42:53.031Z,98250.50
2019-02-06T06:45:23.662Z,98245.68
2019-02-06T06:47:53.284Z,98236.55
2019-02-06T06:50:26.357Z,98242.44
2019-02-06T06:52:56.738Z,98234.83
2019-02-06T06:55:27.784Z,98236.09
2019-02-06T06:57:57.677Z,98237.00
2019-02-06T07:00:28.886Z,98225.18
2019-02-06T07:02:58.486Z,98225.18
2019-02-06T07:05:32.135Z,98225.78
2019-02-06T07:08:09.287Z,98216.54
2019-02-06T07:10:33.169Z,98213.77
2019-02-06T07:13:03.214Z,98213.77
2019-02-06T07:15:34.383Z,98221.84
2019-02-06T07:18:04.338Z,98228.84
2019-02-06T07:20:33.853Z,98228.84
2019-02-06T07:23:03.583Z,98229.77
2019-02-06T07:25:36.104Z,98228.69
2019-02-06T07:28:05.704Z,98227.88
2019-02-06T07:30:36.446Z,98215.65
2019-02-06T07:33:06.395Z,98222.76
2019-02-06T07:35:38.094Z,98231.78
2019-02-06T07:38:07.750Z,98229.14
2019-02-06T07:40:37.162Z,98228.69
2019-02-06T07:43:06.581Z,98232.61
2019-02-06T07:45:36.225Z,98226.91
2019-02-06T07:48:05.653Z,98228.54
2019-02-06T07:50:37.004Z,98224.63
2019-02-06T07:53:06.674Z,98224.63
2019-02-06T07:55:39.771Z,98227.27
2019-02-06T07:58:09.309Z,98219.59
2019-02-06T08:00:39.729Z,98218.22
2019-02-06T08:03:09.174Z,98218.22
2019-02-06T08:05:39.209Z,98221.19
2019-02-06T08:08:08.706Z,98222.77
2019-02-06T08:10:38.167Z,98223.45
2019-02-06T08:13:07.488Z,98220.29
2019-02-06T08:15:36.858Z,98224.23
2019-02-06T08:18:07.254Z,98221.16
2019-02-06T08:20:39.115Z,98222.38
2019-02-06T08:23:08.541Z,98225.36
2019-02-06T08:25:38.989Z,98217.74
2019-02-06T08:28:09.511Z,98219.08
2019-02-06T08:30:41.095Z,98217.58
2019-02-06T08:33:10.711Z,98217.58
2019-02-06T08:35:40.229Z,98211.61
2019-02-06T08:38:10.086Z,98211.28
2019-02-06T08:40:42.595Z,98212.60
2019-02-06T08:43:12.028Z,98212.60
2019-02-06T08:45:44.477Z,98211.22
2019-02-06T08:48:14.175Z,98204.27
2019-02-06T08:50:43.622Z,98212.02
2019-02-06T08:53:22.750Z,98206.31
2019-02-06T08:55:52.797Z,98208.29
2019-02-06T08:58:23.080Z,98208.29
2019-02-06T09:00:54.101Z,98204.77
2019-02-06T09:03:29.361Z,98204.83
2019-02-06T09:06:00.280Z,98203.61
2019-02-06T09:08:29.677Z,98193.88
2019-02-06T09:10:59.167Z,98204.78
2019-02-06T09:13:29.032Z,98201.67
2019-02-06T09:15:58.666Z,98206.60
2019-02-06T09:18:30.134Z,98204.13
2019-02-06T09:21:01.437Z,98204.13
2019-02-06T09:23:30.841Z,98206.64
2019-02-06T09:26:01.122Z,98205.52
2019-02-06T09:28:31.365Z,98203.95
2019-02-06T09:31:01.154Z,98209.52
2019-02-06T09:33:30.581Z,98209.52
2019-02-06T09:35:59.994Z,98215.97
2019-02-06T09:38:29.337Z,98210.44
2019-02-06T09:40:59.066Z,98217.70
2019-02-06T09:43:28.662Z,98217.70
2019-02-06T09:45:58.227Z,98204.57
2019-02-06T09:48:27.808Z,98215.68
2019-02-06T09:50:57.518Z,98210.23
2019-02-06T09:53:26.902Z,98210.23
2019-02-06T09:55:56.454Z,98215.96
2019-02-06T09:58:28.877Z,98215.96
2019-02-06T10:00:59.432Z,98211.98
2019-02-06T10:03:31.567Z,98217.52
2019-02-06T10:06:01.434Z,98217.52
2019-02-06T10:08:32.896Z,98219.27
2019-02-06T10:11:03.080Z,98217.95
2019-02-06T10:13:33.235Z,98221.98
2019-02-06T10:16:03.913Z,98219.59
2019-02-06T10:18:33.821Z,98219.59
2019-02-06T10:21:04.046Z,98226.91
2019-02-06T10:23:34.480Z,98223.56
2019-02-06T10:26:04.559Z,98222.59
2019-02-06T10:28:34.107Z,98229.72
2019-02-06T10:31:03.487Z,98217.00
2019-02-06T10:33:33.359Z,98222.83
2019-02-06T10:36:03.649Z,98220.19
2019-02-06T10:38:34.236Z,98217.87
2019-02-06T10:41:04.930Z,98217.87
2019-02-06T10:43:35.873Z,98216.23
2019-02-06T10:46:07.768Z,98216.70
2019-02-06T10:48:37.335Z,98213.84
2019-02-06T10:51:07.647Z,98215.52
2019-02-06T10:53:37.380Z,98215.52
2019-02-06T10:56:07.650Z,98211.64
2019-02-06T10:58:40.187Z,98206.48
2019-02-06T11:01:11.206Z,98200.69
2019-02-06T11:03:42.727Z,98201.22
2019-02-06T11:06:12.589Z,98188.58
2019-02-06T11:08:43.635Z,98196.72
2019-02-06T11:11:13.059Z,98193.77
2019-02-06T11:13:42.689Z,98189.14
2019-02-06T11:16:12.317Z,98189.06
2019-02-06T11:18:44.381Z,98189.06
2019-02-06T11:21:12.938Z,98186.56
2019-02-06T11:23:42.506Z,98178.92
2019-02-06T11:26:11.876Z,98184.83
2019-02-06T11:28:41.444Z,98179.23
2019-02-06T11:31:10.937Z,98179.23
2019-02-06T11:33:40.416Z,98167.91
2019-02-06T11:36:09.948Z,98168.26
2019-02-06T11:38:42.356Z,98168.26
2019-02-06T11:41:12.083Z,98166.97
2019-02-06T11:43:43.249Z,98166.97
2019-02-06T11:46:12.876Z,98154.03
2019-02-06T11:48:43.407Z,98154.03
2019-02-06T11:51:13.124Z,98141.23
2019-02-06T11:53:43.029Z,98143.84
2019-02-06T11:56:12.469Z,98145.56
2019-02-06T11:58:43.983Z,98144.40
2019-02-06T12:01:46.996Z,98144.40
2019-02-06T12:04:18.211Z,98129.93
2019-02-06T12:06:48.161Z,98129.93
2019-02-06T12:09:19.141Z,98127.40
2019-02-06T12:11:48.562Z,98124.78
2019-02-06T12:14:18.348Z,98124.78
2019-02-06T12:16:48.126Z,98125.58
2019-02-06T12:19:17.585Z,98122.92
2019-02-06T12:21:49.793Z,98115.34
2019-02-06T12:24:19.419Z,98116.27
2019-02-06T12:26:49.251Z,98105.42
2019-02-06T12:29:19.086Z,98112.22
2019-02-06T12:31:54.485Z,98094.13
2019-02-06T12:34:29.448Z,98088.03
2019-02-06T12:37:00.782Z,98094.27
2019-02-06T12:39:32.757Z,98089.78
2019-02-06T12:42:02.762Z,98090.74
2019-02-06T12:44:32.306Z,98090.74
2019-02-06T12:47:02.049Z,98080.92
2019-02-06T12:49:31.517Z,98068.44
2019-02-06T12:52:01.261Z,98070.34
2019-02-06T12:54:31.435Z,98070.34
2019-02-06T12:57:00.886Z,98063.37
2019-02-06T12:59:30.337Z,98061.47
2019-02-06T13:02:00.563Z,98048.76
2019-02-06T13:04:30.123Z,98048.76
2019-02-06T13:07:00.295Z,98046.39
2019-02-06T13:09:31.557Z,98038.03
2019-02-06T13:12:00.974Z,98031.97
2019-02-06T13:14:30.737Z,98041.20
2019-02-06T13:17:00.144Z,98041.20
2019-02-06T13:19:29.585Z,98032.27
2019-02-06T13:21:59.463Z,98027.91
2019-02-06T13:24:32.138Z,98028.75
2019-02-06T13:27:02.010Z,98029.13
2019-02-06T13:29:31.608Z,98027.23
2019-02-06T13:32:01.635Z,98026.76
2019-02-06T13:34:37.678Z,98019.44
2019-02-06T13:37:07.525Z,98018.77
2019-02-06T13:39:38.041Z,98016.95
2019-02-06T13:42:07.354Z,98016.95
2019-02-06T13:44:41.462Z,98002.90
2019-02-06T13:47:10.869Z,98002.90
2019-02-06T13:49:40.766Z,97995.57
2019-02-06T13:52:10.238Z,97996.50
2019-02-06T13:54:39.934Z,97996.50
2019-02-06T13:57:09.337Z,97995.09
2019-02-06T13:59:39.753Z,97995.16
2019-02-06T14:02:09.118Z,98000.97
2019-02-06T14:04:38.884Z,98000.97
2019-02-06T14:07:09.121Z,97999.55
2019-02-06T14:09:38.998Z,97998.41
2019-02-06T14:12:08.422Z,97998.41
2019-02-06T14:14:37.825Z,97994.03
2019-02-06T14:17:08.419Z,97995.19
2019-02-06T14:19:37.813Z,97995.19
2019-02-06T14:22:09.892Z,97980.91
2019-02-06T14:24:51.542Z,97980.91
2019-02-06T14:28:01.742Z,97987.86
2019-02-06T14:31:01.869Z,97979.35
2019-02-06T14:33:46.769Z,97969.62
2019-02-06T14:36:53.490Z,97969.62
2019-02-06T14:39:51.177Z,97964.46
2019-02-06T14:43:03.612Z,97960.84
2019-02-06T14:46:20.230Z,97954.03
2019-02-06T14:49:12.106Z,97954.30
2019-02-06T14:52:34.499Z,97954.30
2019-02-06T14:55:29.357Z,97954.10
2019-02-06T14:58:50.504Z,97954.10
2019-02-06T15:01:42.175Z,97952.56
2019-02-06T15:04:39.841Z,97943.36
2019-02-06T15:07:35.517Z,97932.98
2019-02-06T15:10:33.497Z,97932.98
2019-02-06T15:13:35.335Z,97932.89
2019-02-06T15:16:27.783Z,97933.08
2019-02-06T15:19:19.564Z,97925.41
2019-02-06T15:22:07.171Z,97925.81
2019-02-06T15:25:04.263Z,97925.81
2019-02-06T15:28:06.868Z,97925.80
2019-02-06T15:31:32.237Z,97921.26
2019-02-06T15:34:53.571Z,97921.84
2019-02-06T15:37:49.932Z,97921.84
2019-02-06T15:41:02.700Z,97906.45
2019-02-06T15:43:57.082Z,97903.48
2019-02-06T15:47:06.107Z,97905.87
2019-02-06T15:49:55.844Z,97905.03
2019-02-06T15:52:49.413Z,97900.08
2019-02-06T15:55:43.211Z,97900.75
2019-02-06T15:58:49.455Z,97893.03
2019-02-06T16:01:44.259Z,97889.55
2019-02-06T16:05:20.237Z,97894.03
2019-02-06T16:08:15.465Z,97894.03
2019-02-06T16:11:22.924Z,97884.42
2019-02-06T16:14:19.142Z,97875.33
2019-02-06T16:17:29.909Z,97866.66
2019-02-06T16:20:29.513Z,97866.66
2019-02-06T16:23:20.044Z,97853.59
2019-02-06T16:26:39.214Z,97856.50
2019-02-06T16:30:00.074Z,97856.50
2019-02-06T16:32:46.899Z,97860.23
2019-02-06T16:35:52.149Z,97860.23
2019-02-06T16:38:50.144Z,97854.25
2019-02-06T16:41:56.845Z,97848.81
2019-02-06T16:45:04.111Z,97847.02
2019-02-06T16:48:13.497Z,97837.06
2019-02-06T16:50:57.022Z,97838.48
2019-02-06T16:54:19.528Z,97839.80
2019-02-06T16:57:33.243Z,97835.44
2019-02-06T17:00:26.560Z,97831.47
2019-02-06T17:03:29.256Z,97831.47
2019-02-06T17:06:28.447Z,97833.45
2019-02-06T17:09:32.170Z,97832.03
2019-02-06T17:12:29.551Z,97841.30
2019-02-06T17:16:05.704Z,97852.67
2019-02-06T17:19:05.928Z,97852.67
2019-02-06T17:21:59.095Z,97846.53
2019-02-06T17:25:02.973Z,97843.02
2019-02-06T17:28:16.806Z,97843.08
2019-02-06T17:31:32.567Z,97843.08
2019-02-06T17:34:48.205Z,97855.23
2019-02-06T17:37:47.612Z,97843.28
2019-02-06T17:40:52.186Z,97843.28
2019-02-06T17:43:49.835Z,97828.55
2019-02-06T17:47:00.948Z,97826.66
2019-02-06T17:50:00.137Z,97811.28
2019-02-06T17:53:09.951Z,97812.60
2019-02-06T17:55:39.298Z,97812.60
2019-02-06T17:58:11.318Z,97811.63
2019-02-06T18:00:47.773Z,97816.59
2019-02-06T18:03:17.751Z,97816.59
2019-02-06T18:05:50.252Z,97813.80
2019-02-06T18:08:20.443Z,97807.72
2019-02-06T18:10:53.378Z,97811.63
2019-02-06T18:13:22.940Z,97817.06
2019-02-06T18:15:52.875Z,97817.06
2019-02-06T18:18:22.285Z,97816.06
2019-02-06T18:20:52.434Z,97817.88
2019-02-06T18:23:22.288Z,97822.80
2019-02-06T18:25:55.686Z,97822.80
2019-02-06T18:28:27.080Z,97815.95
2019-02-06T18:30:56.851Z,97812.02
2019-02-06T18:33:26.629Z,97811.86
2019-02-06T18:35:56.702Z,97811.86
2019-02-06T18:38:26.402Z,97800.86
2019-02-06T18:40:56.377Z,97792.08
2019-02-06T18:43:26.212Z,97792.08
2019-02-06T18:45:56.049Z,97792.81
2019-02-06T18:48:26.018Z,97794.13
2019-02-06T18:50:55.844Z,97786.55
2019-02-06T18:53:27.146Z,97787.02
2019-02-06T18:55:59.089Z,97779.05
2019-02-06T18:58:29.379Z,97772.59
2019-02-06T19:00:59.406Z,97772.59
2019-02-06T19:03:33.657Z,97778.37
2019-02-06T19:06:06.122Z,97783.89
2019-02-06T19:08:36.330Z,97776.78
2019-02-06T19:11:06.106Z,97774.98
2019-02-06T19:13:35.854Z,97775.16
2019-02-06T19:16:05.331Z,97777.90
2019-02-06T19:18:37.383Z,97769.68
2019-02-06T19:21:10.754Z,97769.68
2019-02-06T19:23:43.664Z,97766.09
2019-02-06T19:26:13.319Z,97766.09
2019-02-06T19:28:43.283Z,97756.02
2019-02-06T19:31:18.093Z,97745.89
2019-02-06T19:33:48.862Z,97745.62
2019-02-06T19:36:21.200Z,97746.52
2019-02-06T19:38:51.174Z,97741.30
2019-02-06T19:41:23.261Z,97738.86
2019-02-06T19:43:52.961Z,97735.82
2019-02-06T19:46:23.062Z,97735.82
2019-02-06T19:48:59.276Z,97731.57
2019-02-06T19:51:31.757Z,97720.75
2019-02-06T19:54:01.605Z,97720.75
2019-02-06T19:56:31.334Z,97724.64
2019-02-06T19:59:00.870Z,97730.25
2019-02-06T20:01:32.206Z,97722.37
2019-02-06T20:04:02.098Z,97722.08
2019-02-06T20:06:32.893Z,97720.88
2019-02-06T20:11:37.868Z,97719.64
2019-02-06T20:14:07.666Z,97709.41
2019-02-06T20:16:37.885Z,97707.32
2019-02-06T20:19:08.478Z,97709.11
2019-02-06T20:21:38.255Z,97713.27
2019-02-06T20:24:08.084Z,97713.27
2019-02-06T20:26:37.528Z,97696.95
2019-02-06T20:29:08.690Z,97696.95
2019-02-06T20:31:38.671Z,97689.77
2019-02-06T20:34:08.558Z,97683.51
2019-02-06T20:36:41.137Z,97683.69
2019-02-06T20:39:12.340Z,97685.78
2019-02-06T20:41:43.679Z,97687.02
2019-02-06T20:44:14.211Z,97682.27
2019-02-06T20:46:44.157Z,97678.77
2019-02-06T20:49:13.839Z,97678.77
2019-02-06T20:51:47.113Z,97674.87
2019-02-06T20:54:21.538Z,97670.71
2019-02-06T20:56:51.221Z,97670.80
2019-02-06T20:59:24.133Z,97664.25
2019-02-06T21:01:56.849Z,97659.80
2019-02-06T21:04:26.451Z,97659.80
2019-02-06T21:06:56.413Z,97643.58
2019-02-06T21:09:28.179Z,97637.81
2019-02-06T21:11:58.233Z,97639.98
2019-02-06T21:14:29.032Z,97636.57
2019-02-06T21:17:01.119Z,97637.52
2019-02-06T21:19:31.936Z,97634.47
2019-02-06T21:22:01.642Z,97626.43
2019-02-06T21:24:31.648Z,97631.00
2019-02-06T21:27:01.212Z,97628.05
2019-02-06T21:29:31.387Z,97627.55
2019-02-06T21:32:01.228Z,97627.20
2019-02-06T21:34:32.395Z,97627.20
2019-02-06T21:37:04.194Z,97623.78
2019-02-06T21:39:36.575Z,97612.02
2019-02-06T21:42:06.102Z,97612.02
2019-02-06T21:44:37.859Z,97616.76
2019-02-06T21:47:07.530Z,97608.89
2019-02-06T21:49:39.696Z,97605.77
2019-02-06T21:52:09.241Z,97605.77
2019-02-06T21:54:42.017Z,97608.67
2019-02-06T21:57:13.105Z,97608.67
2019-02-06T21:59:54.601Z,97608.41
2019-02-06T22:02:23.708Z,97610.38
2019-02-06T22:04:53.475Z,97603.37
2019-02-06T22:07:24.657Z,97612.86
2019-02-06T22:09:57.918Z,97606.23
2019-02-06T22:12:29.605Z,97603.11
2019-02-06T22:15:00.315Z,97599.52
2019-02-06T22:17:30.054Z,97597.12
2019-02-06T22:20:03.084Z,97597.12
2019-02-06T22:22:32.852Z,97595.12
2019-02-06T22:25:03.465Z,97587.67
2019-02-06T22:27:35.816Z,97585.28
2019-02-06T22:30:08.015Z,97585.28
2019-02-06T22:32:37.600Z,97581.42
2019-02-06T22:35:11.961Z,97576.47
2019-02-06T22:37:41.031Z,97572.78
2019-02-06T22:40:13.197Z,97572.78
2019-02-06T22:42:43.307Z,97570.56
2019-02-06T22:45:17.361Z,97572.74
2019-02-06T22:47:47.233Z,97575.31
2019-02-06T22:50:18.179Z,97567.73
2019-02-06T22:52:48.104Z,97567.27
2019-02-06T22:55:19.948Z,97558.55
2019-02-06T22:57:50.228Z,97563.38
2019-02-06T23:00:59.241Z,97563.38
2019-02-06T23:03:35.907Z,97555.08
2019-02-06T23:06:07.181Z,97543.88
2019-02-06T23:08:37.207Z,97553.38
2019-02-06T23:11:08.677Z,97544.83
2019-02-06T23:13:40.059Z,97544.83
2019-02-06T23:16:10.114Z,97539.56
2019-02-06T23:18:39.862Z,97533.95
2019-02-06T23:21:09.821Z,97533.95
2019-02-06T23:23:41.518Z,97530.45
2019-02-06T23:26:11.233Z,97522.59
2019-02-06T23:28:42.827Z,97522.59
2019-02-06T23:31:12.417Z,97510.28
2019-02-06T23:33:44.509Z,97510.28
2019-02-06T23:36:17.335Z,97503.56
2019-02-06T23:38:48.570Z,97510.75
2019-02-06T23:41:18.536Z,97510.75
2019-02-06T23:43:50.110Z,97506.95
2019-02-06T23:46:22.277Z,97501.94
2019-02-06T23:48:54.165Z,97492.87
2019-02-06T23:51:23.739Z,97480.83
2019-02-06T23:53:53.322Z,97480.83
2019-02-06T23:56:23.060Z,97477.44
2019-02-06T23:58:58.551Z,97477.03
